sensor_id;sensor_type;location;lat;lon;timestamp;P1;durP1;ratioP1;P2;durP2;ratioP2
23406;SDS011;11876;53.438;18.942;2023-07-29T00:04:14;9.15;;;8.35;;
23406;SDS011;11876;53.438;18.942;2023-07-29T00:09:17;13.48;;;8.88;;
23406;SDS011;11876;53.438;18.942;2023-07-29T00:14:20;9.57;;;8.68;;
23406;SDS011;11876;53.438;18.942;2023-07-29T00:19:22;9.90;;;8.90;;
23406;SDS011;11876;53.438;18.942;2023-07-29T00:24:25;9.23;;;8.32;;
23406;SDS011;11876;53.438;18.942;2023-07-29T00:29:27;44.92;;;10.57;;
23406;SDS011;11876;53.438;18.942;2023-07-29T00:34:30;26.83;;;12.25;;
23406;SDS011;11876;53.438;18.942;2023-07-29T00:39:33;41.53;;;11.98;;
23406;SDS011;11876;53.438;18.942;2023-07-29T00:44:36;49.90;;;12.98;;
23406;SDS011;11876;53.438;18.942;2023-07-29T00:49:38;176.50;;;15.93;;
23406;SDS011;11876;53.438;18.942;2023-07-29T00:54:41;101.07;;;14.10;;
23406;SDS011;11876;53.438;18.942;2023-07-29T00:59:44;99.40;;;12.48;;
23406;SDS011;11876;53.438;18.942;2023-07-29T01:04:51;29.50;;;8.82;;
23406;SDS011;11876;53.438;18.942;2023-07-29T01:10:05;155.43;;;11.38;;
23406;SDS011;11876;53.438;18.942;2023-07-29T01:20:33;68.28;;;6.97;;
23406;SDS011;11876;53.438;18.942;2023-07-29T01:25:36;57.97;;;7.13;;
23406;SDS011;11876;53.438;18.942;2023-07-29T01:30:40;46.17;;;7.30;;
23406;SDS011;11876;53.438;18.942;2023-07-29T01:36:01;30.98;;;6.57;;
23406;SDS011;11876;53.438;18.942;2023-07-29T01:41:06;92.97;;;7.60;;
23406;SDS011;11876;53.438;18.942;2023-07-29T01:46:10;18.77;;;6.20;;
23406;SDS011;11876;53.438;18.942;2023-07-29T01:51:16;13.50;;;6.00;;
23406;SDS011;11876;53.438;18.942;2023-07-29T01:56:18;23.02;;;6.45;;
23406;SDS011;11876;53.438;18.942;2023-07-29T02:01:27;6.82;;;6.05;;
23406;SDS011;11876;53.438;18.942;2023-07-29T02:06:30;6.72;;;6.03;;
23406;SDS011;11876;53.438;18.942;2023-07-29T02:11:32;26.85;;;6.38;;
23406;SDS011;11876;53.438;18.942;2023-07-29T02:16:35;6.78;;;6.18;;
23406;SDS011;11876;53.438;18.942;2023-07-29T02:21:39;7.45;;;6.38;;
23406;SDS011;11876;53.438;18.942;2023-07-29T02:26:42;6.72;;;6.13;;
23406;SDS011;11876;53.438;18.942;2023-07-29T02:31:44;6.35;;;5.20;;
23406;SDS011;11876;53.438;18.942;2023-07-29T02:36:47;5.75;;;5.35;;
23406;SDS011;11876;53.438;18.942;2023-07-29T02:41:49;9.38;;;6.35;;
23406;SDS011;11876;53.438;18.942;2023-07-29T02:46:52;6.50;;;6.00;;
23406;SDS011;11876;53.438;18.942;2023-07-29T02:51:56;6.38;;;5.85;;
23406;SDS011;11876;53.438;18.942;2023-07-29T02:56:58;6.28;;;5.75;;
23406;SDS011;11876;53.438;18.942;2023-07-29T03:02:02;18.15;;;6.70;;
23406;SDS011;11876;53.438;18.942;2023-07-29T03:07:05;38.80;;;7.93;;
23406;SDS011;11876;53.438;18.942;2023-07-29T03:12:07;44.33;;;8.10;;
23406;SDS011;11876;53.438;18.942;2023-07-29T03:17:10;8.90;;;5.50;;
23406;SDS011;11876;53.438;18.942;2023-07-29T03:22:12;27.00;;;5.75;;
23406;SDS011;11876;53.438;18.942;2023-07-29T03:27:15;24.23;;;5.50;;
23406;SDS011;11876;53.438;18.942;2023-07-29T03:32:17;5.40;;;4.93;;
23406;SDS011;11876;53.438;18.942;2023-07-29T03:37:20;8.18;;;4.68;;
23406;SDS011;11876;53.438;18.942;2023-07-29T03:42:22;8.32;;;4.95;;
23406;SDS011;11876;53.438;18.942;2023-07-29T03:47:25;8.43;;;5.28;;
23406;SDS011;11876;53.438;18.942;2023-07-29T03:52:29;9.00;;;4.38;;
23406;SDS011;11876;53.438;18.942;2023-07-29T03:57:31;7.18;;;4.78;;
23406;SDS011;11876;53.438;18.942;2023-07-29T04:02:33;8.52;;;5.13;;
23406;SDS011;11876;53.438;18.942;2023-07-29T04:07:39;18.75;;;4.57;;
23406;SDS011;11876;53.438;18.942;2023-07-29T04:12:42;12.73;;;4.72;;
23406;SDS011;11876;53.438;18.942;2023-07-29T04:17:45;10.98;;;4.32;;
23406;SDS011;11876;53.438;18.942;2023-07-29T04:22:47;22.75;;;4.10;;
23406;SDS011;11876;53.438;18.942;2023-07-29T04:27:50;16.80;;;3.92;;
23406;SDS011;11876;53.438;18.942;2023-07-29T04:32:52;3.58;;;3.25;;
23406;SDS011;11876;53.438;18.942;2023-07-29T04:37:55;4.97;;;3.70;;
23406;SDS011;11876;53.438;18.942;2023-07-29T04:42:59;4.60;;;3.63;;
23406;SDS011;11876;53.438;18.942;2023-07-29T04:48:02;4.30;;;3.90;;
23406;SDS011;11876;53.438;18.942;2023-07-29T04:53:05;4.32;;;3.90;;
23406;SDS011;11876;53.438;18.942;2023-07-29T04:58:08;6.47;;;4.25;;
23406;SDS011;11876;53.438;18.942;2023-07-29T05:03:10;7.00;;;3.78;;
23406;SDS011;11876;53.438;18.942;2023-07-29T05:08:12;5.43;;;3.85;;
23406;SDS011;11876;53.438;18.942;2023-07-29T05:13:15;5.68;;;5.18;;
23406;SDS011;11876;53.438;18.942;2023-07-29T05:18:18;5.80;;;5.30;;
23406;SDS011;11876;53.438;18.942;2023-07-29T05:23:20;10.07;;;6.30;;
23406;SDS011;11876;53.438;18.942;2023-07-29T05:28:23;6.88;;;5.80;;
23406;SDS011;11876;53.438;18.942;2023-07-29T05:33:26;8.30;;;6.38;;
23406;SDS011;11876;53.438;18.942;2023-07-29T05:38:28;6.25;;;5.28;;
23406;SDS011;11876;53.438;18.942;2023-07-29T05:43:32;6.93;;;5.95;;
23406;SDS011;11876;53.438;18.942;2023-07-29T05:48:34;10.07;;;7.80;;
23406;SDS011;11876;53.438;18.942;2023-07-29T05:53:37;9.63;;;8.02;;
23406;SDS011;11876;53.438;18.942;2023-07-29T05:58:39;9.32;;;8.52;;
23406;SDS011;11876;53.438;18.942;2023-07-29T06:03:42;8.98;;;8.18;;
23406;SDS011;11876;53.438;18.942;2023-07-29T06:08:44;8.43;;;7.55;;
23406;SDS011;11876;53.438;18.942;2023-07-29T06:13:47;7.63;;;6.78;;
23406;SDS011;11876;53.438;18.942;2023-07-29T06:18:50;8.18;;;7.22;;
23406;SDS011;11876;53.438;18.942;2023-07-29T06:23:54;7.00;;;6.30;;
23406;SDS011;11876;53.438;18.942;2023-07-29T06:28:57;9.30;;;7.30;;
23406;SDS011;11876;53.438;18.942;2023-07-29T06:33:59;7.53;;;6.80;;
23406;SDS011;11876;53.438;18.942;2023-07-29T06:39:02;7.97;;;7.18;;
23406;SDS011;11876;53.438;18.942;2023-07-29T06:44:04;7.45;;;6.63;;
23406;SDS011;11876;53.438;18.942;2023-07-29T06:49:07;6.85;;;6.18;;
23406;SDS011;11876;53.438;18.942;2023-07-29T06:54:09;7.10;;;6.40;;
23406;SDS011;11876;53.438;18.942;2023-07-29T06:59:12;9.13;;;7.03;;
23406;SDS011;11876;53.438;18.942;2023-07-29T07:04:14;5.28;;;4.85;;
23406;SDS011;11876;53.438;18.942;2023-07-29T07:09:17;5.07;;;4.57;;
23406;SDS011;11876;53.438;18.942;2023-07-29T07:14:19;6.90;;;6.28;;
23406;SDS011;11876;53.438;18.942;2023-07-29T07:19:21;5.18;;;4.65;;
23406;SDS011;11876;53.438;18.942;2023-07-29T07:24:24;6.20;;;3.00;;
23406;SDS011;11876;53.438;18.942;2023-07-29T07:29:26;5.80;;;3.38;;
23406;SDS011;11876;53.438;18.942;2023-07-29T07:34:29;3.22;;;2.90;;
23406;SDS011;11876;53.438;18.942;2023-07-29T07:39:31;3.25;;;2.88;;
23406;SDS011;11876;53.438;18.942;2023-07-29T07:44:34;5.18;;;2.65;;
23406;SDS011;11876;53.438;18.942;2023-07-29T07:49:36;2.55;;;1.92;;
23406;SDS011;11876;53.438;18.942;2023-07-29T07:54:39;2.67;;;2.47;;
23406;SDS011;11876;53.438;18.942;2023-07-29T07:59:41;2.58;;;2.13;;
23406;SDS011;11876;53.438;18.942;2023-07-29T08:04:44;2.50;;;2.30;;
23406;SDS011;11876;53.438;18.942;2023-07-29T08:09:46;2.28;;;2.08;;
23406;SDS011;11876;53.438;18.942;2023-07-29T08:14:49;4.97;;;2.15;;
23406;SDS011;11876;53.438;18.942;2023-07-29T08:19:51;2.25;;;1.88;;
23406;SDS011;11876;53.438;18.942;2023-07-29T08:24:54;3.40;;;2.15;;
23406;SDS011;11876;53.438;18.942;2023-07-29T08:29:56;2.30;;;1.92;;
23406;SDS011;11876;53.438;18.942;2023-07-29T08:34:59;2.40;;;1.90;;
23406;SDS011;11876;53.438;18.942;2023-07-29T08:40:02;2.28;;;1.85;;
23406;SDS011;11876;53.438;18.942;2023-07-29T08:45:06;2.25;;;1.90;;
23406;SDS011;11876;53.438;18.942;2023-07-29T08:50:10;2.83;;;2.55;;
23406;SDS011;11876;53.438;18.942;2023-07-29T08:59:58;2.60;;;2.17;;
23406;SDS011;11876;53.438;18.942;2023-07-29T09:05:01;2.35;;;2.00;;
23406;SDS011;11876;53.438;18.942;2023-07-29T09:10:04;2.25;;;2.10;;
23406;SDS011;11876;53.438;18.942;2023-07-29T09:15:06;3.28;;;2.47;;
23406;SDS011;11876;53.438;18.942;2023-07-29T09:20:09;4.68;;;2.33;;
23406;SDS011;11876;53.438;18.942;2023-07-29T09:25:12;3.70;;;2.10;;
23406;SDS011;11876;53.438;18.942;2023-07-29T09:30:18;1.92;;;1.83;;
23406;SDS011;11876;53.438;18.942;2023-07-29T09:35:20;4.10;;;1.73;;
23406;SDS011;11876;53.438;18.942;2023-07-29T09:40:23;1.25;;;1.15;;
23406;SDS011;11876;53.438;18.942;2023-07-29T09:45:26;5.30;;;1.48;;
23406;SDS011;11876;53.438;18.942;2023-07-29T09:50:29;2.30;;;1.75;;
23406;SDS011;11876;53.438;18.942;2023-07-29T09:55:32;1.85;;;1.63;;
23406;SDS011;11876;53.438;18.942;2023-07-29T10:00:35;5.15;;;2.33;;
23406;SDS011;11876;53.438;18.942;2023-07-29T10:05:39;2.17;;;1.98;;
23406;SDS011;11876;53.438;18.942;2023-07-29T10:10:42;9.60;;;3.42;;
23406;SDS011;11876;53.438;18.942;2023-07-29T10:15:45;1.95;;;1.67;;
23406;SDS011;11876;53.438;18.942;2023-07-29T10:20:48;3.63;;;2.00;;
23406;SDS011;11876;53.438;18.942;2023-07-29T10:31:07;3.10;;;1.80;;
23406;SDS011;11876;53.438;18.942;2023-07-29T10:36:10;2.70;;;1.92;;
23406;SDS011;11876;53.438;18.942;2023-07-29T10:41:12;2.30;;;2.10;;
23406;SDS011;11876;53.438;18.942;2023-07-29T10:46:18;5.20;;;2.33;;
23406;SDS011;11876;53.438;18.942;2023-07-29T10:51:22;2.60;;;2.33;;
23406;SDS011;11876;53.438;18.942;2023-07-29T10:56:31;4.00;;;3.27;;
23406;SDS011;11876;53.438;18.942;2023-07-29T11:01:37;2.85;;;2.33;;
23406;SDS011;11876;53.438;18.942;2023-07-29T11:17:57;3.30;;;2.03;;
23406;SDS011;11876;53.438;18.942;2023-07-29T11:23:01;3.15;;;2.30;;
23406;SDS011;11876;53.438;18.942;2023-07-29T11:28:05;3.70;;;2.10;;
23406;SDS011;11876;53.438;18.942;2023-07-29T11:33:07;2.45;;;2.22;;
23406;SDS011;11876;53.438;18.942;2023-07-29T11:38:14;2.13;;;1.80;;
23406;SDS011;11876;53.438;18.942;2023-07-29T11:43:17;4.20;;;2.45;;
23406;SDS011;11876;53.438;18.942;2023-07-29T11:48:27;1.88;;;1.75;;
23406;SDS011;11876;53.438;18.942;2023-07-29T11:53:33;2.10;;;2.00;;
23406;SDS011;11876;53.438;18.942;2023-07-29T11:58:36;3.28;;;1.63;;
23406;SDS011;11876;53.438;18.942;2023-07-29T12:03:40;1.95;;;1.75;;
23406;SDS011;11876;53.438;18.942;2023-07-29T12:08:45;1.80;;;1.70;;
23406;SDS011;11876;53.438;18.942;2023-07-29T12:13:47;1.75;;;1.65;;
23406;SDS011;11876;53.438;18.942;2023-07-29T12:18:50;1.80;;;1.70;;
23406;SDS011;11876;53.438;18.942;2023-07-29T12:23:52;2.42;;;1.48;;
23406;SDS011;11876;53.438;18.942;2023-07-29T12:28:57;1.98;;;1.80;;
23406;SDS011;11876;53.438;18.942;2023-07-29T12:33:59;1.95;;;1.75;;
23406;SDS011;11876;53.438;18.942;2023-07-29T12:39:02;3.30;;;1.95;;
23406;SDS011;11876;53.438;18.942;2023-07-29T12:44:04;1.92;;;1.63;;
23406;SDS011;11876;53.438;18.942;2023-07-29T12:49:07;1.70;;;1.60;;
23406;SDS011;11876;53.438;18.942;2023-07-29T12:54:10;3.30;;;1.50;;
23406;SDS011;11876;53.438;18.942;2023-07-29T12:59:12;2.65;;;1.73;;
23406;SDS011;11876;53.438;18.942;2023-07-29T13:04:15;2.42;;;1.77;;
23406;SDS011;11876;53.438;18.942;2023-07-29T13:09:17;6.05;;;4.40;;
23406;SDS011;11876;53.438;18.942;2023-07-29T13:14:20;2.35;;;1.48;;
23406;SDS011;11876;53.438;18.942;2023-07-29T13:19:22;3.88;;;1.90;;
23406;SDS011;11876;53.438;18.942;2023-07-29T13:24:25;1.45;;;1.35;;
23406;SDS011;11876;53.438;18.942;2023-07-29T13:29:27;3.83;;;2.20;;
23406;SDS011;11876;53.438;18.942;2023-07-29T13:34:29;3.45;;;1.23;;
23406;SDS011;11876;53.438;18.942;2023-07-29T13:39:35;1.40;;;1.10;;
23406;SDS011;11876;53.438;18.942;2023-07-29T13:44:38;3.50;;;1.25;;
23406;SDS011;11876;53.438;18.942;2023-07-29T13:49:40;2.38;;;1.50;;
23406;SDS011;11876;53.438;18.942;2023-07-29T13:54:43;3.22;;;1.90;;
23406;SDS011;11876;53.438;18.942;2023-07-29T13:59:45;2.97;;;1.50;;
23406;SDS011;11876;53.438;18.942;2023-07-29T14:04:48;1.30;;;1.20;;
23406;SDS011;11876;53.438;18.942;2023-07-29T14:09:50;2.65;;;1.38;;
23406;SDS011;11876;53.438;18.942;2023-07-29T14:14:54;1.55;;;1.27;;
23406;SDS011;11876;53.438;18.942;2023-07-29T14:19:56;1.38;;;0.93;;
23406;SDS011;11876;53.438;18.942;2023-07-29T14:25:00;1.55;;;1.30;;
23406;SDS011;11876;53.438;18.942;2023-07-29T14:30:03;2.00;;;1.20;;
23406;SDS011;11876;53.438;18.942;2023-07-29T14:35:06;1.10;;;1.00;;
23406;SDS011;11876;53.438;18.942;2023-07-29T14:40:09;1.27;;;1.17;;
23406;SDS011;11876;53.438;18.942;2023-07-29T14:45:12;1.00;;;1.00;;
23406;SDS011;11876;53.438;18.942;2023-07-29T14:50:14;9.30;;;1.40;;
23406;SDS011;11876;53.438;18.942;2023-07-29T14:55:17;2.90;;;1.25;;
23406;SDS011;11876;53.438;18.942;2023-07-29T15:00:19;5.07;;;1.60;;
23406;SDS011;11876;53.438;18.942;2023-07-29T15:05:22;1.08;;;1.08;;
23406;SDS011;11876;53.438;18.942;2023-07-29T15:10:24;2.35;;;1.60;;
23406;SDS011;11876;53.438;18.942;2023-07-29T15:15:27;1.27;;;1.13;;
23406;SDS011;11876;53.438;18.942;2023-07-29T15:20:29;1.30;;;1.20;;
23406;SDS011;11876;53.438;18.942;2023-07-29T15:25:32;1.88;;;1.27;;
23406;SDS011;11876;53.438;18.942;2023-07-29T15:30:37;2.15;;;0.98;;
23406;SDS011;11876;53.438;18.942;2023-07-29T15:35:42;5.28;;;1.30;;
23406;SDS011;11876;53.438;18.942;2023-07-29T15:40:45;1.45;;;1.10;;
23406;SDS011;11876;53.438;18.942;2023-07-29T15:45:50;1.45;;;1.35;;
23406;SDS011;11876;53.438;18.942;2023-07-29T15:50:52;2.17;;;1.83;;
23406;SDS011;11876;53.438;18.942;2023-07-29T15:55:55;1.40;;;1.30;;
23406;SDS011;11876;53.438;18.942;2023-07-29T16:00:57;2.83;;;1.50;;
23406;SDS011;11876;53.438;18.942;2023-07-29T16:06:00;1.58;;;1.48;;
23406;SDS011;11876;53.438;18.942;2023-07-29T16:11:03;2.25;;;1.52;;
23406;SDS011;11876;53.438;18.942;2023-07-29T16:16:06;1.40;;;1.30;;
23406;SDS011;11876;53.438;18.942;2023-07-29T16:21:08;2.75;;;1.58;;
23406;SDS011;11876;53.438;18.942;2023-07-29T16:26:11;2.97;;;1.50;;
23406;SDS011;11876;53.438;18.942;2023-07-29T16:31:14;3.42;;;1.98;;
23406;SDS011;11876;53.438;18.942;2023-07-29T16:36:16;2.97;;;2.05;;
23406;SDS011;11876;53.438;18.942;2023-07-29T16:41:19;2.58;;;1.60;;
23406;SDS011;11876;53.438;18.942;2023-07-29T16:46:42;4.78;;;2.00;;
23406;SDS011;11876;53.438;18.942;2023-07-29T16:51:44;3.70;;;1.95;;
23406;SDS011;11876;53.438;18.942;2023-07-29T16:56:47;3.40;;;1.70;;
23406;SDS011;11876;53.438;18.942;2023-07-29T17:01:49;1.55;;;1.30;;
23406;SDS011;11876;53.438;18.942;2023-07-29T17:06:52;4.90;;;1.98;;
23406;SDS011;11876;53.438;18.942;2023-07-29T17:11:55;31.40;;;3.70;;
23406;SDS011;11876;53.438;18.942;2023-07-29T17:17:01;40.28;;;3.63;;
23406;SDS011;11876;53.438;18.942;2023-07-29T17:22:03;1.70;;;0.82;;
23406;SDS011;11876;53.438;18.942;2023-07-29T17:27:06;7.00;;;1.52;;
23406;SDS011;11876;53.438;18.942;2023-07-29T17:32:08;4.65;;;1.73;;
23406;SDS011;11876;53.438;18.942;2023-07-29T17:37:10;4.60;;;1.90;;
23406;SDS011;11876;53.438;18.942;2023-07-29T17:42:13;5.53;;;1.70;;
23406;SDS011;11876;53.438;18.942;2023-07-29T17:47:15;3.92;;;2.30;;
23406;SDS011;11876;53.438;18.942;2023-07-29T17:52:20;4.10;;;1.50;;
23406;SDS011;11876;53.438;18.942;2023-07-29T17:57:22;5.03;;;2.22;;
23406;SDS011;11876;53.438;18.942;2023-07-29T18:02:24;5.50;;;4.20;;
23406;SDS011;11876;53.438;18.942;2023-07-29T18:07:28;3.85;;;2.30;;
23406;SDS011;11876;53.438;18.942;2023-07-29T18:12:30;4.07;;;2.30;;
23406;SDS011;11876;53.438;18.942;2023-07-29T18:17:32;5.10;;;2.40;;
23406;SDS011;11876;53.438;18.942;2023-07-29T18:22:35;5.18;;;2.70;;
23406;SDS011;11876;53.438;18.942;2023-07-29T18:27:37;3.70;;;1.92;;
23406;SDS011;11876;53.438;18.942;2023-07-29T18:32:40;5.22;;;2.22;;
23406;SDS011;11876;53.438;18.942;2023-07-29T18:37:46;7.13;;;2.42;;
23406;SDS011;11876;53.438;18.942;2023-07-29T18:42:55;5.53;;;2.58;;
23406;SDS011;11876;53.438;18.942;2023-07-29T18:47:57;5.18;;;2.67;;
23406;SDS011;11876;53.438;18.942;2023-07-29T18:53:00;4.50;;;2.50;;
23406;SDS011;11876;53.438;18.942;2023-07-29T18:58:02;7.35;;;2.50;;
23406;SDS011;11876;53.438;18.942;2023-07-29T19:03:04;2.85;;;2.10;;
23406;SDS011;11876;53.438;18.942;2023-07-29T19:08:07;5.90;;;3.10;;
23406;SDS011;11876;53.438;18.942;2023-07-29T19:13:12;6.93;;;4.50;;
23406;SDS011;11876;53.438;18.942;2023-07-29T19:18:14;4.97;;;3.45;;
23406;SDS011;11876;53.438;18.942;2023-07-29T19:23:17;5.57;;;3.42;;
23406;SDS011;11876;53.438;18.942;2023-07-29T19:28:20;5.10;;;3.33;;
23406;SDS011;11876;53.438;18.942;2023-07-29T19:33:23;6.57;;;4.38;;
23406;SDS011;11876;53.438;18.942;2023-07-29T19:38:25;6.00;;;5.05;;
23406;SDS011;11876;53.438;18.942;2023-07-29T19:43:28;8.32;;;5.72;;
23406;SDS011;11876;53.438;18.942;2023-07-29T19:48:32;8.40;;;5.25;;
23406;SDS011;11876;53.438;18.942;2023-07-29T19:53:35;12.20;;;6.13;;
23406;SDS011;11876;53.438;18.942;2023-07-29T19:58:38;7.50;;;6.07;;
23406;SDS011;11876;53.438;18.942;2023-07-29T20:03:40;10.13;;;6.40;;
23406;SDS011;11876;53.438;18.942;2023-07-29T20:08:43;6.95;;;6.20;;
23406;SDS011;11876;53.438;18.942;2023-07-29T20:13:45;8.65;;;7.38;;
23406;SDS011;11876;53.438;18.942;2023-07-29T20:18:48;9.95;;;7.22;;
23406;SDS011;11876;53.438;18.942;2023-07-29T20:23:50;8.80;;;7.38;;
23406;SDS011;11876;53.438;18.942;2023-07-29T20:28:52;12.68;;;8.73;;
23406;SDS011;11876;53.438;18.942;2023-07-29T20:33:55;6.95;;;6.25;;
23406;SDS011;11876;53.438;18.942;2023-07-29T20:38:57;5.05;;;4.55;;
23406;SDS011;11876;53.438;18.942;2023-07-29T20:44:00;5.60;;;4.55;;
23406;SDS011;11876;53.438;18.942;2023-07-29T20:49:03;7.30;;;5.03;;
23406;SDS011;11876;53.438;18.942;2023-07-29T20:54:06;6.65;;;4.40;;
23406;SDS011;11876;53.438;18.942;2023-07-29T20:59:09;5.63;;;4.15;;
23406;SDS011;11876;53.438;18.942;2023-07-29T21:04:13;4.95;;;4.43;;
23406;SDS011;11876;53.438;18.942;2023-07-29T21:09:15;5.55;;;4.07;;
23406;SDS011;11876;53.438;18.942;2023-07-29T21:14:18;5.85;;;3.70;;
23406;SDS011;11876;53.438;18.942;2023-07-29T21:19:20;5.40;;;3.45;;
23406;SDS011;11876;53.438;18.942;2023-07-29T21:24:23;5.28;;;3.40;;
23406;SDS011;11876;53.438;18.942;2023-07-29T21:29:25;4.97;;;4.47;;
23406;SDS011;11876;53.438;18.942;2023-07-29T21:34:28;5.82;;;4.50;;
23406;SDS011;11876;53.438;18.942;2023-07-29T21:39:30;11.10;;;8.07;;
23406;SDS011;11876;53.438;18.942;2023-07-29T21:44:33;8.90;;;7.97;;
23406;SDS011;11876;53.438;18.942;2023-07-29T21:49:35;7.70;;;5.57;;
23406;SDS011;11876;53.438;18.942;2023-07-29T21:54:38;11.88;;;5.05;;
23406;SDS011;11876;53.438;18.942;2023-07-29T21:59:40;11.15;;;5.65;;
23406;SDS011;11876;53.438;18.942;2023-07-29T22:04:43;9.98;;;6.22;;
23406;SDS011;11876;53.438;18.942;2023-07-29T22:09:46;7.15;;;6.45;;
23406;SDS011;11876;53.438;18.942;2023-07-29T22:14:48;7.60;;;6.30;;
23406;SDS011;11876;53.438;18.942;2023-07-29T22:19:51;9.68;;;6.47;;
23406;SDS011;11876;53.438;18.942;2023-07-29T22:24:54;10.25;;;7.22;;
23406;SDS011;11876;53.438;18.942;2023-07-29T22:29:56;18.27;;;7.60;;
23406;SDS011;11876;53.438;18.942;2023-07-29T22:34:58;17.85;;;7.05;;
23406;SDS011;11876;53.438;18.942;2023-07-29T22:40:01;16.30;;;6.80;;
23406;SDS011;11876;53.438;18.942;2023-07-29T22:45:04;13.48;;;6.55;;
23406;SDS011;11876;53.438;18.942;2023-07-29T22:50:07;9.30;;;5.22;;
23406;SDS011;11876;53.438;18.942;2023-07-29T22:55:10;11.88;;;5.35;;
23406;SDS011;11876;53.438;18.942;2023-07-29T23:00:13;11.20;;;5.30;;
23406;SDS011;11876;53.438;18.942;2023-07-29T23:05:15;17.88;;;5.55;;
23406;SDS011;11876;53.438;18.942;2023-07-29T23:10:18;11.55;;;4.93;;
23406;SDS011;11876;53.438;18.942;2023-07-29T23:15:21;16.70;;;5.55;;
23406;SDS011;11876;53.438;18.942;2023-07-29T23:20:23;13.70;;;5.30;;
23406;SDS011;11876;53.438;18.942;2023-07-29T23:25:28;10.10;;;5.97;;
23406;SDS011;11876;53.438;18.942;2023-07-29T23:30:31;12.13;;;6.97;;
23406;SDS011;11876;53.438;18.942;2023-07-29T23:35:33;10.40;;;6.93;;
23406;SDS011;11876;53.438;18.942;2023-07-29T23:40:36;9.95;;;6.28;;
23406;SDS011;11876;53.438;18.942;2023-07-29T23:45:38;17.92;;;6.57;;
23406;SDS011;11876;53.438;18.942;2023-07-29T23:50:44;9.07;;;6.30;;
23406;SDS011;11876;53.438;18.942;2023-07-29T23:55:46;14.68;;;6.00;;
